sensor_id;sensor_type;location;lat;lon;timestamp;P1;durP1;ratioP1;P2;durP2;ratioP2
18166;SDS011;9208;42.688;23.404;2022-09-16T00:01:08;5.00;;;2.80;;
18166;SDS011;9208;42.688;23.404;2022-09-16T00:03:37;4.20;;;2.60;;
18166;SDS011;9208;42.688;23.404;2022-09-16T00:06:03;7.00;;;2.73;;
18166;SDS011;9208;42.688;23.404;2022-09-16T00:08:29;6.07;;;2.77;;
18166;SDS011;9208;42.688;23.404;2022-09-16T00:10:59;7.63;;;2.83;;
18166;SDS011;9208;42.688;23.404;2022-09-16T00:13:25;7.17;;;2.40;;
18166;SDS011;9208;42.688;23.404;2022-09-16T00:15:51;5.60;;;2.90;;
18166;SDS011;9208;42.688;23.404;2022-09-16T00:18:16;4.53;;;2.80;;
18166;SDS011;9208;42.688;23.404;2022-09-16T00:20:43;5.67;;;2.87;;
18166;SDS011;9208;42.688;23.404;2022-09-16T00:23:13;8.90;;;3.23;;
18166;SDS011;9208;42.688;23.404;2022-09-16T00:25:39;7.73;;;2.90;;
18166;SDS011;9208;42.688;23.404;2022-09-16T00:28:05;10.20;;;3.30;;
18166;SDS011;9208;42.688;23.404;2022-09-16T00:30:31;8.27;;;4.23;;
18166;SDS011;9208;42.688;23.404;2022-09-16T00:32:57;14.40;;;5.20;;
18166;SDS011;9208;42.688;23.404;2022-09-16T00:35:22;9.57;;;3.93;;
18166;SDS011;9208;42.688;23.404;2022-09-16T00:37:48;8.93;;;3.67;;
18166;SDS011;9208;42.688;23.404;2022-09-16T00:40:14;4.57;;;3.00;;
18166;SDS011;9208;42.688;23.404;2022-09-16T00:42:39;6.47;;;3.30;;
18166;SDS011;9208;42.688;23.404;2022-09-16T00:45:12;6.17;;;3.20;;
18166;SDS011;9208;42.688;23.404;2022-09-16T00:47:48;10.50;;;4.83;;
18166;SDS011;9208;42.688;23.404;2022-09-16T00:50:27;8.73;;;4.00;;
18166;SDS011;9208;42.688;23.404;2022-09-16T00:53:16;6.97;;;3.30;;
18166;SDS011;9208;42.688;23.404;2022-09-16T00:55:46;6.80;;;3.27;;
18166;SDS011;9208;42.688;23.404;2022-09-16T01:00:56;6.57;;;3.47;;
18166;SDS011;9208;42.688;23.404;2022-09-16T01:03:22;7.80;;;3.27;;
18166;SDS011;9208;42.688;23.404;2022-09-16T01:05:49;5.37;;;2.80;;
18166;SDS011;9208;42.688;23.404;2022-09-16T01:08:14;6.90;;;3.30;;
18166;SDS011;9208;42.688;23.404;2022-09-16T01:10:40;6.27;;;3.17;;
18166;SDS011;9208;42.688;23.404;2022-09-16T01:13:07;8.17;;;2.90;;
18166;SDS011;9208;42.688;23.404;2022-09-16T01:18:13;4.93;;;2.90;;
18166;SDS011;9208;42.688;23.404;2022-09-16T01:32:05;6.60;;;3.37;;
18166;SDS011;9208;42.688;23.404;2022-09-16T01:37:34;6.10;;;3.70;;
18166;SDS011;9208;42.688;23.404;2022-09-16T01:53:41;6.40;;;3.30;;
18166;SDS011;9208;42.688;23.404;2022-09-16T01:58:41;5.70;;;2.90;;
18166;SDS011;9208;42.688;23.404;2022-09-16T02:01:20;7.63;;;3.10;;
18166;SDS011;9208;42.688;23.404;2022-09-16T02:03:50;6.63;;;2.77;;
18166;SDS011;9208;42.688;23.404;2022-09-16T02:06:26;7.87;;;2.90;;
18166;SDS011;9208;42.688;23.404;2022-09-16T02:08:56;6.17;;;2.83;;
18166;SDS011;9208;42.688;23.404;2022-09-16T02:11:24;7.73;;;2.60;;
18166;SDS011;9208;42.688;23.404;2022-09-16T02:14:01;4.03;;;2.37;;
18166;SDS011;9208;42.688;23.404;2022-09-16T02:16:34;5.83;;;2.83;;
18166;SDS011;9208;42.688;23.404;2022-09-16T02:19:05;7.30;;;2.47;;
18166;SDS011;9208;42.688;23.404;2022-09-16T02:21:36;5.67;;;3.10;;
18166;SDS011;9208;42.688;23.404;2022-09-16T02:24:06;5.77;;;2.73;;
18166;SDS011;9208;42.688;23.404;2022-09-16T02:26:39;5.27;;;2.70;;
18166;SDS011;9208;42.688;23.404;2022-09-16T02:29:10;6.90;;;2.57;;
18166;SDS011;9208;42.688;23.404;2022-09-16T02:31:42;5.30;;;2.67;;
18166;SDS011;9208;42.688;23.404;2022-09-16T02:34:15;5.73;;;3.30;;
18166;SDS011;9208;42.688;23.404;2022-09-16T02:36:51;6.37;;;3.10;;
18166;SDS011;9208;42.688;23.404;2022-09-16T02:39:22;6.23;;;3.37;;
18166;SDS011;9208;42.688;23.404;2022-09-16T02:41:54;6.23;;;2.97;;
18166;SDS011;9208;42.688;23.404;2022-09-16T02:44:21;5.67;;;2.57;;
18166;SDS011;9208;42.688;23.404;2022-09-16T02:46:54;6.37;;;2.83;;
18166;SDS011;9208;42.688;23.404;2022-09-16T02:52:19;5.73;;;2.70;;
18166;SDS011;9208;42.688;23.404;2022-09-16T02:54:58;4.73;;;2.40;;
18166;SDS011;9208;42.688;23.404;2022-09-16T02:57:30;6.57;;;2.40;;
18166;SDS011;9208;42.688;23.404;2022-09-16T02:59:56;4.77;;;2.70;;
18166;SDS011;9208;42.688;23.404;2022-09-16T03:02:22;8.97;;;3.10;;
18166;SDS011;9208;42.688;23.404;2022-09-16T03:04:47;6.27;;;3.10;;
18166;SDS011;9208;42.688;23.404;2022-09-16T03:07:13;5.80;;;3.20;;
18166;SDS011;9208;42.688;23.404;2022-09-16T03:09:41;7.37;;;3.13;;
18166;SDS011;9208;42.688;23.404;2022-09-16T03:14:44;10.03;;;3.43;;
18166;SDS011;9208;42.688;23.404;2022-09-16T03:22:48;9.53;;;3.10;;
18166;SDS011;9208;42.688;23.404;2022-09-16T03:25:22;6.53;;;3.57;;
18166;SDS011;9208;42.688;23.404;2022-09-16T03:28:08;7.57;;;2.87;;
18166;SDS011;9208;42.688;23.404;2022-09-16T03:30:44;7.57;;;3.20;;
18166;SDS011;9208;42.688;23.404;2022-09-16T03:33:56;8.87;;;3.87;;
18166;SDS011;9208;42.688;23.404;2022-09-16T03:36:22;6.67;;;3.20;;
18166;SDS011;9208;42.688;23.404;2022-09-16T03:38:57;7.77;;;3.07;;
18166;SDS011;9208;42.688;23.404;2022-09-16T03:41:25;5.47;;;2.67;;
18166;SDS011;9208;42.688;23.404;2022-09-16T03:43:57;4.53;;;2.87;;
18166;SDS011;9208;42.688;23.404;2022-09-16T03:46:24;6.07;;;3.00;;
18166;SDS011;9208;42.688;23.404;2022-09-16T03:48:50;8.10;;;3.10;;
18166;SDS011;9208;42.688;23.404;2022-09-16T03:51:16;6.10;;;3.00;;
18166;SDS011;9208;42.688;23.404;2022-09-16T03:53:41;5.47;;;3.10;;
18166;SDS011;9208;42.688;23.404;2022-09-16T03:56:07;6.27;;;3.17;;
18166;SDS011;9208;42.688;23.404;2022-09-16T03:58:33;5.67;;;2.80;;
18166;SDS011;9208;42.688;23.404;2022-09-16T04:01:01;8.27;;;3.47;;
18166;SDS011;9208;42.688;23.404;2022-09-16T04:03:26;5.60;;;3.50;;
18166;SDS011;9208;42.688;23.404;2022-09-16T04:05:52;8.97;;;3.23;;
18166;SDS011;9208;42.688;23.404;2022-09-16T04:08:18;6.97;;;2.80;;
18166;SDS011;9208;42.688;23.404;2022-09-16T04:10:56;6.93;;;3.37;;
18166;SDS011;9208;42.688;23.404;2022-09-16T04:13:29;7.67;;;2.90;;
18166;SDS011;9208;42.688;23.404;2022-09-16T04:15:59;6.07;;;3.00;;
18166;SDS011;9208;42.688;23.404;2022-09-16T04:18:28;7.17;;;3.07;;
18166;SDS011;9208;42.688;23.404;2022-09-16T04:20:55;7.82;;;3.45;;
18166;SDS011;9208;42.688;23.404;2022-09-16T04:23:23;5.90;;;3.00;;
18166;SDS011;9208;42.688;23.404;2022-09-16T04:26:01;7.53;;;2.70;;
18166;SDS011;9208;42.688;23.404;2022-09-16T04:28:27;7.80;;;3.10;;
18166;SDS011;9208;42.688;23.404;2022-09-16T04:30:58;10.00;;;3.87;;
18166;SDS011;9208;42.688;23.404;2022-09-16T04:33:32;8.00;;;3.70;;
18166;SDS011;9208;42.688;23.404;2022-09-16T04:36:02;6.67;;;3.50;;
18166;SDS011;9208;42.688;23.404;2022-09-16T04:38:28;10.73;;;3.60;;
18166;SDS011;9208;42.688;23.404;2022-09-16T04:40:58;11.70;;;4.10;;
18166;SDS011;9208;42.688;23.404;2022-09-16T04:43:27;10.17;;;3.60;;
18166;SDS011;9208;42.688;23.404;2022-09-16T04:45:53;12.43;;;4.00;;
18166;SDS011;9208;42.688;23.404;2022-09-16T04:48:22;21.17;;;5.57;;
18166;SDS011;9208;42.688;23.404;2022-09-16T04:50:47;6.23;;;3.40;;
18166;SDS011;9208;42.688;23.404;2022-09-16T04:53:13;5.80;;;3.20;;
18166;SDS011;9208;42.688;23.404;2022-09-16T04:55:38;6.63;;;2.97;;
18166;SDS011;9208;42.688;23.404;2022-09-16T04:58:04;5.10;;;2.83;;
18166;SDS011;9208;42.688;23.404;2022-09-16T05:00:29;9.03;;;3.23;;
18166;SDS011;9208;42.688;23.404;2022-09-16T05:02:54;4.77;;;2.50;;
18166;SDS011;9208;42.688;23.404;2022-09-16T05:05:20;7.83;;;2.87;;
18166;SDS011;9208;42.688;23.404;2022-09-16T05:07:46;7.30;;;2.77;;
18166;SDS011;9208;42.688;23.404;2022-09-16T05:10:11;7.93;;;2.60;;
18166;SDS011;9208;42.688;23.404;2022-09-16T05:12:37;8.90;;;3.03;;
18166;SDS011;9208;42.688;23.404;2022-09-16T05:15:03;7.80;;;2.67;;
18166;SDS011;9208;42.688;23.404;2022-09-16T05:17:29;10.00;;;3.47;;
18166;SDS011;9208;42.688;23.404;2022-09-16T05:19:55;11.00;;;3.50;;
18166;SDS011;9208;42.688;23.404;2022-09-16T05:22:21;8.50;;;3.70;;
18166;SDS011;9208;42.688;23.404;2022-09-16T05:24:47;14.70;;;5.53;;
18166;SDS011;9208;42.688;23.404;2022-09-16T05:27:12;11.20;;;7.23;;
18166;SDS011;9208;42.688;23.404;2022-09-16T05:29:38;13.53;;;6.37;;
18166;SDS011;9208;42.688;23.404;2022-09-16T05:32:04;14.60;;;5.60;;
18166;SDS011;9208;42.688;23.404;2022-09-16T05:34:29;10.07;;;5.63;;
18166;SDS011;9208;42.688;23.404;2022-09-16T05:36:55;14.67;;;5.57;;
18166;SDS011;9208;42.688;23.404;2022-09-16T05:39:21;13.73;;;4.60;;
18166;SDS011;9208;42.688;23.404;2022-09-16T05:41:48;8.43;;;4.30;;
18166;SDS011;9208;42.688;23.404;2022-09-16T05:44:14;10.73;;;4.23;;
18166;SDS011;9208;42.688;23.404;2022-09-16T05:46:39;10.83;;;4.53;;
18166;SDS011;9208;42.688;23.404;2022-09-16T05:49:05;9.80;;;3.90;;
18166;SDS011;9208;42.688;23.404;2022-09-16T05:51:31;9.70;;;3.77;;
18166;SDS011;9208;42.688;23.404;2022-09-16T05:53:57;9.57;;;4.30;;
18166;SDS011;9208;42.688;23.404;2022-09-16T05:56:27;7.07;;;4.20;;
18166;SDS011;9208;42.688;23.404;2022-09-16T05:58:54;11.70;;;4.10;;
18166;SDS011;9208;42.688;23.404;2022-09-16T06:01:22;14.87;;;5.13;;
18166;SDS011;9208;42.688;23.404;2022-09-16T06:03:49;9.93;;;4.10;;
18166;SDS011;9208;42.688;23.404;2022-09-16T06:08:58;10.43;;;4.07;;
18166;SDS011;9208;42.688;23.404;2022-09-16T06:11:26;9.23;;;3.87;;
18166;SDS011;9208;42.688;23.404;2022-09-16T06:13:53;10.93;;;3.97;;
18166;SDS011;9208;42.688;23.404;2022-09-16T06:16:20;8.10;;;3.23;;
18166;SDS011;9208;42.688;23.404;2022-09-16T06:18:46;9.17;;;3.87;;
18166;SDS011;9208;42.688;23.404;2022-09-16T06:21:11;8.53;;;3.73;;
18166;SDS011;9208;42.688;23.404;2022-09-16T06:23:37;7.10;;;3.50;;
18166;SDS011;9208;42.688;23.404;2022-09-16T06:26:08;7.30;;;3.53;;
18166;SDS011;9208;42.688;23.404;2022-09-16T06:28:44;9.17;;;2.73;;
18166;SDS011;9208;42.688;23.404;2022-09-16T06:31:13;5.43;;;2.77;;
18166;SDS011;9208;42.688;23.404;2022-09-16T06:33:39;6.33;;;2.90;;
18166;SDS011;9208;42.688;23.404;2022-09-16T06:36:06;5.10;;;2.50;;
18166;SDS011;9208;42.688;23.404;2022-09-16T06:38:33;9.27;;;3.00;;
18166;SDS011;9208;42.688;23.404;2022-09-16T06:40:59;10.47;;;3.30;;
18166;SDS011;9208;42.688;23.404;2022-09-16T06:43:26;6.37;;;2.87;;
18166;SDS011;9208;42.688;23.404;2022-09-16T06:45:55;5.57;;;2.73;;
18166;SDS011;9208;42.688;23.404;2022-09-16T06:48:25;7.90;;;3.07;;
18166;SDS011;9208;42.688;23.404;2022-09-16T06:50:58;11.40;;;3.10;;
18166;SDS011;9208;42.688;23.404;2022-09-16T06:53:24;8.00;;;3.30;;
18166;SDS011;9208;42.688;23.404;2022-09-16T06:55:50;7.00;;;3.10;;
18166;SDS011;9208;42.688;23.404;2022-09-16T06:58:16;13.30;;;3.47;;
18166;SDS011;9208;42.688;23.404;2022-09-16T07:00:41;14.97;;;4.00;;
18166;SDS011;9208;42.688;23.404;2022-09-16T07:03:07;9.43;;;3.70;;
18166;SDS011;9208;42.688;23.404;2022-09-16T07:05:32;10.63;;;3.17;;
18166;SDS011;9208;42.688;23.404;2022-09-16T07:07:58;4.63;;;2.87;;
18166;SDS011;9208;42.688;23.404;2022-09-16T07:10:24;7.63;;;3.30;;
18166;SDS011;9208;42.688;23.404;2022-09-16T07:12:50;7.63;;;3.63;;
18166;SDS011;9208;42.688;23.404;2022-09-16T07:15:15;5.23;;;2.70;;
18166;SDS011;9208;42.688;23.404;2022-09-16T07:17:41;8.23;;;3.17;;
18166;SDS011;9208;42.688;23.404;2022-09-16T07:20:06;5.60;;;3.00;;
18166;SDS011;9208;42.688;23.404;2022-09-16T07:22:32;6.60;;;2.83;;
18166;SDS011;9208;42.688;23.404;2022-09-16T07:25:00;10.00;;;3.37;;
18166;SDS011;9208;42.688;23.404;2022-09-16T07:27:28;6.13;;;2.93;;
18166;SDS011;9208;42.688;23.404;2022-09-16T07:29:55;7.77;;;3.00;;
18166;SDS011;9208;42.688;23.404;2022-09-16T07:32:20;7.53;;;3.00;;
18166;SDS011;9208;42.688;23.404;2022-09-16T07:34:46;7.33;;;3.33;;
18166;SDS011;9208;42.688;23.404;2022-09-16T07:37:12;7.70;;;3.00;;
18166;SDS011;9208;42.688;23.404;2022-09-16T07:39:38;8.10;;;3.07;;
18166;SDS011;9208;42.688;23.404;2022-09-16T07:42:04;6.97;;;3.00;;
18166;SDS011;9208;42.688;23.404;2022-09-16T07:44:30;6.60;;;3.40;;
18166;SDS011;9208;42.688;23.404;2022-09-16T07:46:55;6.70;;;2.73;;
18166;SDS011;9208;42.688;23.404;2022-09-16T07:49:21;6.87;;;2.90;;
18166;SDS011;9208;42.688;23.404;2022-09-16T07:51:46;5.37;;;2.40;;
18166;SDS011;9208;42.688;23.404;2022-09-16T07:54:14;5.53;;;2.63;;
18166;SDS011;9208;42.688;23.404;2022-09-16T07:56:41;6.73;;;2.40;;
18166;SDS011;9208;42.688;23.404;2022-09-16T07:59:09;5.47;;;2.30;;
18166;SDS011;9208;42.688;23.404;2022-09-16T08:01:36;7.77;;;2.70;;
18166;SDS011;9208;42.688;23.404;2022-09-16T08:04:02;5.20;;;2.67;;
18166;SDS011;9208;42.688;23.404;2022-09-16T08:06:29;6.10;;;2.60;;
18166;SDS011;9208;42.688;23.404;2022-09-16T08:08:57;7.90;;;2.80;;
18166;SDS011;9208;42.688;23.404;2022-09-16T08:11:24;5.53;;;2.40;;
18166;SDS011;9208;42.688;23.404;2022-09-16T08:13:51;5.87;;;3.20;;
18166;SDS011;9208;42.688;23.404;2022-09-16T08:16:18;7.33;;;2.93;;
18166;SDS011;9208;42.688;23.404;2022-09-16T08:18:49;8.10;;;3.10;;
18166;SDS011;9208;42.688;23.404;2022-09-16T08:21:19;6.70;;;3.47;;
18166;SDS011;9208;42.688;23.404;2022-09-16T08:23:46;8.43;;;3.20;;
18166;SDS011;9208;42.688;23.404;2022-09-16T08:26:12;6.03;;;2.90;;
18166;SDS011;9208;42.688;23.404;2022-09-16T08:28:39;9.97;;;2.93;;
18166;SDS011;9208;42.688;23.404;2022-09-16T08:31:06;4.90;;;3.10;;
18166;SDS011;9208;42.688;23.404;2022-09-16T08:33:32;6.30;;;2.33;;
18166;SDS011;9208;42.688;23.404;2022-09-16T08:36:01;5.67;;;2.50;;
18166;SDS011;9208;42.688;23.404;2022-09-16T08:38:39;5.40;;;2.80;;
18166;SDS011;9208;42.688;23.404;2022-09-16T08:46:35;8.40;;;3.27;;
18166;SDS011;9208;42.688;23.404;2022-09-16T08:49:19;6.50;;;2.77;;
18166;SDS011;9208;42.688;23.404;2022-09-16T08:51:50;8.93;;;3.00;;
18166;SDS011;9208;42.688;23.404;2022-09-16T08:54:27;7.10;;;2.53;;
18166;SDS011;9208;42.688;23.404;2022-09-16T08:57:00;5.53;;;2.80;;
18166;SDS011;9208;42.688;23.404;2022-09-16T08:59:30;5.00;;;2.50;;
18166;SDS011;9208;42.688;23.404;2022-09-16T09:04:47;10.37;;;2.80;;
18166;SDS011;9208;42.688;23.404;2022-09-16T09:11:09;7.53;;;2.90;;
18166;SDS011;9208;42.688;23.404;2022-09-16T09:16:15;6.93;;;2.87;;
18166;SDS011;9208;42.688;23.404;2022-09-16T09:24:13;7.10;;;2.43;;
18166;SDS011;9208;42.688;23.404;2022-09-16T09:26:48;5.63;;;2.53;;
18166;SDS011;9208;42.688;23.404;2022-09-16T09:32:15;8.10;;;2.53;;
18166;SDS011;9208;42.688;23.404;2022-09-16T09:41:02;7.47;;;2.67;;
18166;SDS011;9208;42.688;23.404;2022-09-16T09:43:34;9.80;;;3.13;;
18166;SDS011;9208;42.688;23.404;2022-09-16T09:48:38;6.50;;;2.47;;
18166;SDS011;9208;42.688;23.404;2022-09-16T09:51:14;6.30;;;2.63;;
18166;SDS011;9208;42.688;23.404;2022-09-16T09:53:51;6.23;;;2.43;;
18166;SDS011;9208;42.688;23.404;2022-09-16T09:56:23;6.03;;;2.77;;
18166;SDS011;9208;42.688;23.404;2022-09-16T10:01:58;7.50;;;2.90;;
18166;SDS011;9208;42.688;23.404;2022-09-16T10:04:25;6.87;;;3.27;;
18166;SDS011;9208;42.688;23.404;2022-09-16T10:06:56;2.93;;;2.20;;
18166;SDS011;9208;42.688;23.404;2022-09-16T10:09:22;8.07;;;2.93;;
18166;SDS011;9208;42.688;23.404;2022-09-16T10:11:52;9.83;;;2.70;;
18166;SDS011;9208;42.688;23.404;2022-09-16T10:14:28;8.10;;;2.57;;
18166;SDS011;9208;42.688;23.404;2022-09-16T10:16:54;14.53;;;5.87;;
18166;SDS011;9208;42.688;23.404;2022-09-16T10:19:22;11.90;;;3.90;;
18166;SDS011;9208;42.688;23.404;2022-09-16T10:21:51;9.37;;;3.47;;
18166;SDS011;9208;42.688;23.404;2022-09-16T10:24:29;9.03;;;2.93;;
18166;SDS011;9208;42.688;23.404;2022-09-16T10:27:01;5.47;;;2.90;;
18166;SDS011;9208;42.688;23.404;2022-09-16T10:29:43;9.30;;;2.77;;
18166;SDS011;9208;42.688;23.404;2022-09-16T10:32:10;8.70;;;3.60;;
18166;SDS011;9208;42.688;23.404;2022-09-16T10:34:41;7.70;;;2.70;;
18166;SDS011;9208;42.688;23.404;2022-09-16T10:39:36;4.57;;;2.13;;
18166;SDS011;9208;42.688;23.404;2022-09-16T10:42:14;4.90;;;1.80;;
18166;SDS011;9208;42.688;23.404;2022-09-16T10:44:43;4.70;;;1.90;;
18166;SDS011;9208;42.688;23.404;2022-09-16T10:47:46;4.03;;;1.90;;
18166;SDS011;9208;42.688;23.404;2022-09-16T10:50:03;6.40;;;2.37;;
18166;SDS011;9208;42.688;23.404;2022-09-16T10:52:31;7.40;;;2.37;;
18166;SDS011;9208;42.688;23.404;2022-09-16T10:55:26;3.73;;;2.20;;
18166;SDS011;9208;42.688;23.404;2022-09-16T10:57:53;5.33;;;2.20;;
18166;SDS011;9208;42.688;23.404;2022-09-16T11:00:31;4.13;;;2.70;;
18166;SDS011;9208;42.688;23.404;2022-09-16T11:27:54;4.10;;;2.47;;
18166;SDS011;9208;42.688;23.404;2022-09-16T11:30:21;3.83;;;2.00;;
18166;SDS011;9208;42.688;23.404;2022-09-16T11:40:47;3.23;;;1.80;;
18166;SDS011;9208;42.688;23.404;2022-09-16T11:46:10;2.70;;;1.77;;
18166;SDS011;9208;42.688;23.404;2022-09-16T11:49:14;2.77;;;1.50;;
18166;SDS011;9208;42.688;23.404;2022-09-16T11:57:10;4.60;;;2.80;;
18166;SDS011;9208;42.688;23.404;2022-09-16T11:59:43;5.80;;;2.80;;
18166;SDS011;9208;42.688;23.404;2022-09-16T12:02:20;5.97;;;3.03;;
18166;SDS011;9208;42.688;23.404;2022-09-16T12:04:52;9.23;;;2.50;;
18166;SDS011;9208;42.688;23.404;2022-09-16T12:10:24;4.37;;;2.67;;
18166;SDS011;9208;42.688;23.404;2022-09-16T12:12:54;5.57;;;2.70;;
18166;SDS011;9208;42.688;23.404;2022-09-16T12:15:36;6.00;;;2.33;;
18166;SDS011;9208;42.688;23.404;2022-09-16T12:20:53;7.10;;;2.77;;
18166;SDS011;9208;42.688;23.404;2022-09-16T12:23:26;6.17;;;2.70;;
18166;SDS011;9208;42.688;23.404;2022-09-16T12:31:34;3.00;;;1.70;;
18166;SDS011;9208;42.688;23.404;2022-09-16T12:34:13;2.97;;;1.80;;
18166;SDS011;9208;42.688;23.404;2022-09-16T12:36:48;3.40;;;1.90;;
18166;SDS011;9208;42.688;23.404;2022-09-16T12:39:23;4.63;;;1.80;;
18166;SDS011;9208;42.688;23.404;2022-09-16T12:45:01;2.90;;;1.60;;
18166;SDS011;9208;42.688;23.404;2022-09-16T13:03:48;5.67;;;2.53;;
18166;SDS011;9208;42.688;23.404;2022-09-16T13:08:48;6.87;;;2.60;;
18166;SDS011;9208;42.688;23.404;2022-09-16T13:11:19;6.13;;;2.00;;
18166;SDS011;9208;42.688;23.404;2022-09-16T13:13:51;5.63;;;2.00;;
18166;SDS011;9208;42.688;23.404;2022-09-16T13:16:34;4.77;;;2.10;;
18166;SDS011;9208;42.688;23.404;2022-09-16T13:19:22;5.70;;;2.00;;
18166;SDS011;9208;42.688;23.404;2022-09-16T13:21:56;5.70;;;2.40;;
18166;SDS011;9208;42.688;23.404;2022-09-16T13:27:00;6.40;;;2.47;;
18166;SDS011;9208;42.688;23.404;2022-09-16T13:29:39;4.23;;;2.00;;
18166;SDS011;9208;42.688;23.404;2022-09-16T13:32:23;3.87;;;1.90;;
18166;SDS011;9208;42.688;23.404;2022-09-16T13:35:03;3.90;;;2.17;;
18166;SDS011;9208;42.688;23.404;2022-09-16T13:37:50;3.83;;;1.83;;
18166;SDS011;9208;42.688;23.404;2022-09-16T13:40:22;3.47;;;2.00;;
18166;SDS011;9208;42.688;23.404;2022-09-16T13:43:02;4.93;;;1.80;;
18166;SDS011;9208;42.688;23.404;2022-09-16T13:45:35;4.20;;;2.00;;
18166;SDS011;9208;42.688;23.404;2022-09-16T13:48:11;3.23;;;2.40;;
18166;SDS011;9208;42.688;23.404;2022-09-16T13:50:50;6.43;;;3.10;;
18166;SDS011;9208;42.688;23.404;2022-09-16T13:53:30;2.60;;;2.00;;
18166;SDS011;9208;42.688;23.404;2022-09-16T13:56:01;3.63;;;1.83;;
18166;SDS011;9208;42.688;23.404;2022-09-16T14:15:13;3.23;;;1.80;;
18166;SDS011;9208;42.688;23.404;2022-09-16T14:17:41;4.23;;;1.80;;
18166;SDS011;9208;42.688;23.404;2022-09-16T14:20:12;2.27;;;1.40;;
18166;SDS011;9208;42.688;23.404;2022-09-16T14:22:42;7.07;;;2.57;;
18166;SDS011;9208;42.688;23.404;2022-09-16T14:28:33;4.07;;;1.83;;
18166;SDS011;9208;42.688;23.404;2022-09-16T14:33:31;4.77;;;2.00;;
18166;SDS011;9208;42.688;23.404;2022-09-16T14:36:00;2.47;;;1.70;;
18166;SDS011;9208;42.688;23.404;2022-09-16T14:38:35;4.07;;;2.13;;
18166;SDS011;9208;42.688;23.404;2022-09-16T14:41:06;2.07;;;1.70;;
18166;SDS011;9208;42.688;23.404;2022-09-16T14:43:33;4.50;;;2.30;;
18166;SDS011;9208;42.688;23.404;2022-09-16T14:46:01;4.43;;;2.50;;
18166;SDS011;9208;42.688;23.404;2022-09-16T14:48:32;4.23;;;2.27;;
18166;SDS011;9208;42.688;23.404;2022-09-16T14:51:00;4.00;;;2.00;;
18166;SDS011;9208;42.688;23.404;2022-09-16T14:53:30;3.73;;;1.80;;
18166;SDS011;9208;42.688;23.404;2022-09-16T14:56:00;4.23;;;1.70;;
18166;SDS011;9208;42.688;23.404;2022-09-16T14:58:26;2.00;;;1.43;;
18166;SDS011;9208;42.688;23.404;2022-09-16T15:00:55;4.77;;;1.70;;
18166;SDS011;9208;42.688;23.404;2022-09-16T15:03:30;3.67;;;1.50;;
18166;SDS011;9208;42.688;23.404;2022-09-16T15:06:10;3.13;;;1.93;;
18166;SDS011;9208;42.688;23.404;2022-09-16T15:08:53;4.00;;;2.00;;
18166;SDS011;9208;42.688;23.404;2022-09-16T15:11:25;1.80;;;1.50;;
18166;SDS011;9208;42.688;23.404;2022-09-16T15:13:53;4.13;;;1.50;;
18166;SDS011;9208;42.688;23.404;2022-09-16T15:16:20;4.97;;;1.70;;
18166;SDS011;9208;42.688;23.404;2022-09-16T15:18:51;5.63;;;1.70;;
18166;SDS011;9208;42.688;23.404;2022-09-16T15:21:20;2.73;;;1.40;;
18166;SDS011;9208;42.688;23.404;2022-09-16T15:23:50;3.03;;;1.50;;
18166;SDS011;9208;42.688;23.404;2022-09-16T15:26:18;3.33;;;1.50;;
18166;SDS011;9208;42.688;23.404;2022-09-16T15:33:57;4.40;;;1.80;;
18166;SDS011;9208;42.688;23.404;2022-09-16T15:36:34;3.23;;;2.20;;
18166;SDS011;9208;42.688;23.404;2022-09-16T15:39:05;3.63;;;1.80;;
18166;SDS011;9208;42.688;23.404;2022-09-16T15:41:48;5.80;;;2.17;;
18166;SDS011;9208;42.688;23.404;2022-09-16T15:44:26;3.87;;;1.90;;
18166;SDS011;9208;42.688;23.404;2022-09-16T15:46:52;2.03;;;1.70;;
18166;SDS011;9208;42.688;23.404;2022-09-16T15:49:17;1.50;;;1.40;;
18166;SDS011;9208;42.688;23.404;2022-09-16T15:51:48;2.20;;;1.67;;
18166;SDS011;9208;42.688;23.404;2022-09-16T15:54:29;2.70;;;1.90;;
18166;SDS011;9208;42.688;23.404;2022-09-16T15:57:03;4.80;;;2.00;;
18166;SDS011;9208;42.688;23.404;2022-09-16T15:59:40;2.53;;;1.73;;
18166;SDS011;9208;42.688;23.404;2022-09-16T16:05:16;2.87;;;2.07;;
18166;SDS011;9208;42.688;23.404;2022-09-16T16:07:48;4.23;;;2.00;;
18166;SDS011;9208;42.688;23.404;2022-09-16T16:10:23;8.70;;;2.80;;
18166;SDS011;9208;42.688;23.404;2022-09-16T16:12:56;3.57;;;1.83;;
18166;SDS011;9208;42.688;23.404;2022-09-16T16:15:24;2.77;;;1.80;;
18166;SDS011;9208;42.688;23.404;2022-09-16T16:17:56;3.37;;;1.87;;
18166;SDS011;9208;42.688;23.404;2022-09-16T16:20:26;3.30;;;1.90;;
18166;SDS011;9208;42.688;23.404;2022-09-16T16:22:52;2.10;;;1.50;;
18166;SDS011;9208;42.688;23.404;2022-09-16T16:25:18;3.87;;;1.87;;
18166;SDS011;9208;42.688;23.404;2022-09-16T16:27:43;4.37;;;2.10;;
18166;SDS011;9208;42.688;23.404;2022-09-16T16:30:09;3.73;;;1.97;;
18166;SDS011;9208;42.688;23.404;2022-09-16T16:32:35;4.37;;;1.80;;
18166;SDS011;9208;42.688;23.404;2022-09-16T16:35:03;5.57;;;2.17;;
18166;SDS011;9208;42.688;23.404;2022-09-16T16:37:29;3.63;;;2.67;;
18166;SDS011;9208;42.688;23.404;2022-09-16T16:39:55;2.50;;;1.77;;
18166;SDS011;9208;42.688;23.404;2022-09-16T16:42:20;2.33;;;1.70;;
18166;SDS011;9208;42.688;23.404;2022-09-16T16:44:47;2.93;;;1.87;;
18166;SDS011;9208;42.688;23.404;2022-09-16T16:47:12;3.50;;;1.70;;
18166;SDS011;9208;42.688;23.404;2022-09-16T16:49:38;3.00;;;1.63;;
18166;SDS011;9208;42.688;23.404;2022-09-16T16:52:04;4.27;;;2.20;;
18166;SDS011;9208;42.688;23.404;2022-09-16T16:54:31;2.30;;;2.10;;
18166;SDS011;9208;42.688;23.404;2022-09-16T16:56:57;3.40;;;2.00;;
18166;SDS011;9208;42.688;23.404;2022-09-16T16:59:24;3.80;;;1.77;;
18166;SDS011;9208;42.688;23.404;2022-09-16T17:01:53;1.90;;;1.50;;
18166;SDS011;9208;42.688;23.404;2022-09-16T17:04:20;3.20;;;1.70;;
18166;SDS011;9208;42.688;23.404;2022-09-16T17:06:46;3.13;;;1.57;;
18166;SDS011;9208;42.688;23.404;2022-09-16T17:09:12;3.07;;;1.70;;
18166;SDS011;9208;42.688;23.404;2022-09-16T17:11:48;1.90;;;1.60;;
18166;SDS011;9208;42.688;23.404;2022-09-16T17:14:19;3.33;;;2.00;;
18166;SDS011;9208;42.688;23.404;2022-09-16T17:16:46;2.97;;;1.80;;
18166;SDS011;9208;42.688;23.404;2022-09-16T17:19:13;2.70;;;2.00;;
18166;SDS011;9208;42.688;23.404;2022-09-16T17:21:40;6.57;;;2.63;;
18166;SDS011;9208;42.688;23.404;2022-09-16T17:24:06;3.23;;;2.27;;
18166;SDS011;9208;42.688;23.404;2022-09-16T17:26:34;6.80;;;2.27;;
18166;SDS011;9208;42.688;23.404;2022-09-16T17:29:00;2.83;;;2.07;;
18166;SDS011;9208;42.688;23.404;2022-09-16T17:31:28;3.40;;;2.63;;
18166;SDS011;9208;42.688;23.404;2022-09-16T17:33:56;3.03;;;1.90;;
18166;SDS011;9208;42.688;23.404;2022-09-16T17:36:28;3.90;;;1.83;;
18166;SDS011;9208;42.688;23.404;2022-09-16T17:39:02;2.57;;;1.63;;
18166;SDS011;9208;42.688;23.404;2022-09-16T17:41:30;3.00;;;1.67;;
18166;SDS011;9208;42.688;23.404;2022-09-16T17:43:56;4.20;;;2.13;;
18166;SDS011;9208;42.688;23.404;2022-09-16T17:46:23;2.40;;;1.90;;
18166;SDS011;9208;42.688;23.404;2022-09-16T17:48:51;3.33;;;2.00;;
18166;SDS011;9208;42.688;23.404;2022-09-16T17:51:17;2.20;;;1.93;;
18166;SDS011;9208;42.688;23.404;2022-09-16T17:53:43;2.63;;;1.60;;
18166;SDS011;9208;42.688;23.404;2022-09-16T17:56:13;3.90;;;1.97;;
18166;SDS011;9208;42.688;23.404;2022-09-16T17:58:41;2.93;;;2.10;;
18166;SDS011;9208;42.688;23.404;2022-09-16T18:01:12;4.67;;;2.13;;
18166;SDS011;9208;42.688;23.404;2022-09-16T18:03:40;3.43;;;2.00;;
18166;SDS011;9208;42.688;23.404;2022-09-16T18:06:09;4.90;;;2.37;;
18166;SDS011;9208;42.688;23.404;2022-09-16T18:08:40;3.80;;;2.40;;
18166;SDS011;9208;42.688;23.404;2022-09-16T18:11:05;3.43;;;2.20;;
18166;SDS011;9208;42.688;23.404;2022-09-16T18:13:32;3.97;;;2.50;;
18166;SDS011;9208;42.688;23.404;2022-09-16T18:16:06;4.50;;;2.67;;